Time,TemperatureF,DewpointF,PressureIn,WindDirection,WindDirectionDegrees,WindSpeedMPH,WindSpeedGustMPH,Humidity,HourlyPrecipIn,Conditions,Clouds,dailyrainin,SoftwareType,DateUTC
2013-01-29 00:07:00,40.8,37.0,30.25,NW,316,0.0,-999.0,85,-99.99,,,0.00,weatherlink.com 1.10,2013-01-29 08:07:00,
2013-01-29 00:22:00,40.8,37.0,30.26,NW,316,0.0,-999.0,85,-99.99,,,0.00,weatherlink.com 1.10,2013-01-29 08:22:00,
2013-01-29 00:37:00,40.6,37.0,30.25,NW,316,0.0,-999.0,85,-99.99,,,0.00,weatherlink.com 1.10,2013-01-29 08:37:00,
2013-01-29 00:52:00,40.9,37.0,30.25,NW,316,0.0,-999.0,85,-99.99,,,0.00,weatherlink.com 1.10,2013-01-29 08:52:00,
2013-01-29 01:07:00,41.1,37.0,30.26,NW,316,0.0,-999.0,84,-99.99,,,0.00,weatherlink.com 1.10,2013-01-29 09:07:00,
2013-01-29 01:22:00,40.9,36.0,30.25,NW,316,0.0,-999.0,83,-99.99,,,0.00,weatherlink.com 1.10,2013-01-29 09:22:00,
2013-01-29 01:37:00,40.3,36.0,30.25,NW,316,0.0,-999.0,83,-99.99,,,0.00,weatherlink.com 1.10,2013-01-29 09:37:00,
2013-01-29 01:52:00,39.8,35.0,30.26,NW,316,0.0,-999.0,84,-99.99,,,0.00,weatherlink.com 1.10,2013-01-29 09:52:00,
2013-01-29 02:07:00,39.3,35.0,30.26,NW,316,0.0,-999.0,84,-99.99,,,0.00,weatherlink.com 1.10,2013-01-29 10:07:00,
2013-01-29 02:23:00,38.8,34.0,30.26,NW,316,0.0,-999.0,84,-99.99,,,0.00,weatherlink.com 1.10,2013-01-29 10:23:00,
2013-01-29 02:38:00,38.3,34.0,30.26,NW,316,0.0,-999.0,85,-99.99,,,0.00,weatherlink.com 1.10,2013-01-29 10:38:00,
2013-01-29 02:53:00,37.9,34.0,30.26,NW,316,0.0,-999.0,86,-99.99,,,0.00,weatherlink.com 1.10,2013-01-29 10:53:00,
2013-01-29 03:08:00,37.6,34.0,30.27,NW,316,0.0,-999.0,87,-99.99,,,0.00,weatherlink.com 1.10,2013-01-29 11:08:00,
2013-01-29 03:23:00,37.6,34.0,30.27,NW,316,0.0,-999.0,88,-99.99,,,0.00,weatherlink.com 1.10,2013-01-29 11:23:00,
2013-01-29 03:38:00,37.5,34.0,30.27,NW,316,0.0,-999.0,88,-99.99,,,0.00,weatherlink.com 1.10,2013-01-29 11:38:00,
2013-01-29 03:53:00,37.6,35.0,30.26,NW,316,0.0,-999.0,89,-99.99,,,0.00,weatherlink.com 1.10,2013-01-29 11:53:00,
2013-01-29 04:09:00,37.6,35.0,30.26,NW,316,0.0,-999.0,89,-99.99,,,0.00,weatherlink.com 1.10,2013-01-29 12:09:00,
2013-01-29 04:23:00,37.6,35.0,30.28,NW,316,0.0,-999.0,89,-99.99,,,0.00,weatherlink.com 1.10,2013-01-29 12:23:00,
2013-01-29 04:38:00,37.8,35.0,30.28,NW,316,0.0,-999.0,89,-99.99,,,0.00,weatherlink.com 1.10,2013-01-29 12:38:00,
2013-01-29 04:53:00,37.5,35.0,30.28,NW,316,0.0,-999.0,89,-99.99,,,0.00,weatherlink.com 1.10,2013-01-29 12:53:00,
2013-01-29 05:08:00,37.0,34.0,30.29,NW,316,0.0,-999.0,89,-99.99,,,0.00,weatherlink.com 1.10,2013-01-29 13:08:00,
2013-01-29 05:23:00,36.6,34.0,30.28,NW,316,0.0,-999.0,89,-99.99,,,0.00,weatherlink.com 1.10,2013-01-29 13:23:00,
2013-01-29 05:38:00,36.2,33.0,30.28,NW,316,0.0,-999.0,89,-99.99,,,0.00,weatherlink.com 1.10,2013-01-29 13:38:00,
2013-01-29 05:53:00,36.0,33.0,30.29,NW,316,0.0,-999.0,90,-99.99,,,0.00,weatherlink.com 1.10,2013-01-29 13:53:00,
2013-01-29 06:08:00,35.9,33.0,30.30,NW,316,0.0,-999.0,90,-99.99,,,0.00,weatherlink.com 1.10,2013-01-29 14:08:00,
2013-01-29 06:23:00,35.5,33.0,30.30,NW,316,1.0,-999.0,89,-99.99,,,0.00,weatherlink.com 1.10,2013-01-29 14:23:00,
2013-01-29 06:38:00,35.0,32.0,30.29,NW,316,0.0,-999.0,90,-99.99,,,0.00,weatherlink.com 1.10,2013-01-29 14:38:00,
2013-01-29 06:53:00,35.0,32.0,30.30,NW,316,0.0,-999.0,90,-99.99,,,0.00,weatherlink.com 1.10,2013-01-29 14:53:00,
2013-01-29 07:08:00,34.9,32.0,30.30,NW,316,0.0,-999.0,90,-99.99,,,0.00,weatherlink.com 1.10,2013-01-29 15:08:00,
2013-01-29 07:23:00,34.7,32.0,30.31,NW,316,0.0,-999.0,91,-99.99,,,0.00,weatherlink.com 1.10,2013-01-29 15:23:00,
2013-01-29 07:38:00,34.6,32.0,30.31,NW,316,0.0,-999.0,91,-99.99,,,0.00,weatherlink.com 1.10,2013-01-29 15:38:00,
2013-01-29 07:53:00,34.6,32.0,30.31,NW,316,0.0,-999.0,91,-99.99,,,0.00,weatherlink.com 1.10,2013-01-29 15:53:00,
2013-01-29 08:08:00,34.7,33.0,30.31,NW,316,0.0,-999.0,92,-99.99,,,0.00,weatherlink.com 1.10,2013-01-29 16:08:00,
2013-01-29 08:23:00,35.2,33.0,30.32,NW,316,0.0,-999.0,92,-99.99,,,0.00,weatherlink.com 1.10,2013-01-29 16:23:00,
2013-01-29 08:39:00,36.5,35.0,30.32,NW,316,0.0,-999.0,93,-99.99,,,0.00,weatherlink.com 1.10,2013-01-29 16:39:00,
2013-01-29 08:54:00,38.0,36.0,30.32,NW,316,0.0,-999.0,93,-99.99,,,0.00,weatherlink.com 1.10,2013-01-29 16:54:00,
2013-01-29 09:09:00,39.6,38.0,30.32,NW,316,0.0,-999.0,94,-99.99,,,0.00,weatherlink.com 1.10,2013-01-29 17:09:00,
2013-01-29 09:24:00,41.1,39.0,30.33,NW,316,0.0,-999.0,93,-99.99,,,0.00,weatherlink.com 1.10,2013-01-29 17:24:00,
2013-01-29 09:39:00,42.8,40.0,30.32,NNE,27,2.0,-999.0,91,-99.99,,,0.00,weatherlink.com 1.10,2013-01-29 17:39:00,
2013-01-29 09:54:00,44.2,40.0,30.33,NNE,30,0.0,-999.0,86,-99.99,,,0.00,weatherlink.com 1.10,2013-01-29 17:54:00,
2013-01-29 10:09:00,45.8,40.0,30.33,NNE,31,1.0,-999.0,79,-99.99,,,0.00,weatherlink.com 1.10,2013-01-29 18:09:00,
2013-01-29 10:24:00,47.9,40.0,30.33,NNE,31,0.0,-999.0,75,-99.99,,,0.00,weatherlink.com 1.10,2013-01-29 18:24:00,
2013-01-29 10:39:00,49.6,40.0,30.33,NNE,26,4.0,-999.0,69,-99.99,,,0.00,weatherlink.com 1.10,2013-01-29 18:39:00,
2013-01-29 10:54:00,50.8,38.0,30.33,NNE,17,2.0,-999.0,62,-99.99,,,0.00,weatherlink.com 1.10,2013-01-29 18:54:00,
2013-01-29 11:09:00,51.9,39.0,30.33,NW,305,2.0,-999.0,61,-99.99,,,0.00,weatherlink.com 1.10,2013-01-29 19:09:00,
2013-01-29 11:24:00,53.1,38.0,30.33,NW,305,0.0,-999.0,58,-99.99,,,0.00,weatherlink.com 1.10,2013-01-29 19:24:00,
2013-01-29 11:39:00,54.2,39.0,30.32,NW,305,0.0,-999.0,57,-99.99,,,0.00,weatherlink.com 1.10,2013-01-29 19:39:00,
2013-01-29 11:54:00,55.6,38.0,30.31,SSE,153,0.0,-999.0,53,-99.99,,,0.00,weatherlink.com 1.10,2013-01-29 19:54:00,
2013-01-29 12:09:00,56.6,40.0,30.30,NNW,327,0.0,-999.0,54,-99.99,,,0.00,weatherlink.com 1.10,2013-01-29 20:09:00,
2013-01-29 12:24:00,57.6,39.0,30.29,NW,317,0.0,-999.0,51,-99.99,,,0.00,weatherlink.com 1.10,2013-01-29 20:24:00,
2013-01-29 12:39:00,58.7,39.0,30.29,NNE,19,2.0,-999.0,48,-99.99,,,0.00,weatherlink.com 1.10,2013-01-29 20:39:00,
2013-01-29 12:54:00,58.9,40.0,30.28,NW,308,3.0,-999.0,49,-99.99,,,0.00,weatherlink.com 1.10,2013-01-29 20:54:00,
2013-01-29 13:09:00,59.2,41.0,30.26,North,360,1.0,-999.0,52,-99.99,,,0.00,weatherlink.com 1.10,2013-01-29 21:09:00,
2013-01-29 13:24:00,59.8,41.0,30.26,NNW,334,3.0,-999.0,50,-99.99,,,0.00,weatherlink.com 1.10,2013-01-29 21:24:00,
2013-01-29 13:39:00,60.1,40.0,30.25,NNE,18,2.0,-999.0,48,-99.99,,,0.00,weatherlink.com 1.10,2013-01-29 21:39:00,
2013-01-29 13:54:00,60.4,40.0,30.25,NNW,343,1.0,-999.0,48,-99.99,,,0.00,weatherlink.com 1.10,2013-01-29 21:54:00,
2013-01-29 14:09:00,61.0,41.0,30.25,NNE,30,0.0,-999.0,48,-99.99,,,0.00,weatherlink.com 1.10,2013-01-29 22:09:00,
2013-01-29 14:24:00,61.8,41.0,30.24,North,5,0.0,-999.0,46,-99.99,,,0.00,weatherlink.com 1.10,2013-01-29 22:24:00,
2013-01-29 14:39:00,62.0,41.0,30.24,North,11,1.0,-999.0,46,-99.99,,,0.00,weatherlink.com 1.10,2013-01-29 22:39:00,
2013-01-29 14:54:00,62.6,40.0,30.24,NNW,346,1.0,-999.0,44,-99.99,,,0.00,weatherlink.com 1.10,2013-01-29 22:54:00,
2013-01-29 15:09:00,63.1,40.0,30.24,NW,319,0.0,-999.0,43,-99.99,,,0.00,weatherlink.com 1.10,2013-01-29 23:09:00,
2013-01-29 15:24:00,63.4,42.0,30.24,NNW,332,3.0,-999.0,46,-99.99,,,0.00,weatherlink.com 1.10,2013-01-29 23:24:00,
2013-01-29 15:39:00,63.5,42.0,30.23,North,11,1.0,-999.0,45,-99.99,,,0.00,weatherlink.com 1.10,2013-01-29 23:39:00,
2013-01-29 15:54:00,63.7,42.0,30.23,North,5,0.0,-999.0,45,-99.99,,,0.00,weatherlink.com 1.10,2013-01-29 23:54:00,
2013-01-29 16:10:00,63.5,41.0,30.23,NNW,348,3.0,-999.0,44,-99.99,,,0.00,weatherlink.com 1.10,2013-01-30 00:10:00,
2013-01-29 16:25:00,63.1,41.0,30.23,NNW,338,0.0,-999.0,45,-99.99,,,0.00,weatherlink.com 1.10,2013-01-30 00:25:00,
2013-01-29 16:40:00,62.6,41.0,30.23,NNW,339,0.0,-999.0,45,-99.99,,,0.00,weatherlink.com 1.10,2013-01-30 00:40:00,
2013-01-29 16:55:00,62.0,43.0,30.23,NNW,339,0.0,-999.0,50,-99.99,,,0.00,weatherlink.com 1.10,2013-01-30 00:55:00,
2013-01-29 17:10:00,59.3,43.0,30.23,NNW,339,0.0,-999.0,56,-99.99,,,0.00,weatherlink.com 1.10,2013-01-30 01:10:00,
2013-01-29 17:25:00,56.6,44.0,30.23,NNW,339,1.0,-999.0,62,-99.99,,,0.00,weatherlink.com 1.10,2013-01-30 01:25:00,
2013-01-29 17:40:00,54.2,42.0,30.23,NNW,339,0.0,-999.0,64,-99.99,,,0.00,weatherlink.com 1.10,2013-01-30 01:40:00,
2013-01-29 17:55:00,52.9,42.0,30.23,NNW,339,0.0,-999.0,67,-99.99,,,0.00,weatherlink.com 1.10,2013-01-30 01:55:00,
2013-01-29 18:10:00,51.3,42.0,30.24,NNW,339,0.0,-999.0,70,-99.99,,,0.00,weatherlink.com 1.10,2013-01-30 02:10:00,
2013-01-29 18:25:00,50.2,41.0,30.25,NNW,339,3.0,-999.0,71,-99.99,,,0.00,weatherlink.com 1.10,2013-01-30 02:25:00,
2013-01-29 18:40:00,48.6,41.0,30.25,NNW,339,1.0,-999.0,74,-99.99,,,0.00,weatherlink.com 1.10,2013-01-30 02:40:00,
2013-01-29 18:55:00,47.9,41.0,30.25,NNW,339,0.0,-999.0,76,-99.99,,,0.00,weatherlink.com 1.10,2013-01-30 02:55:00,
2013-01-29 19:10:00,47.7,41.0,30.26,NNW,339,0.0,-999.0,77,-99.99,,,0.00,weatherlink.com 1.10,2013-01-30 03:10:00,
2013-01-29 19:25:00,47.3,40.0,30.26,NNW,339,1.0,-999.0,77,-99.99,,,0.00,weatherlink.com 1.10,2013-01-30 03:25:00,
2013-01-29 19:40:00,46.7,41.0,30.26,NNW,339,0.0,-999.0,79,-99.99,,,0.00,weatherlink.com 1.10,2013-01-30 03:40:00,
2013-01-29 19:55:00,46.4,40.0,30.27,NNW,339,3.0,-999.0,79,-99.99,,,0.00,weatherlink.com 1.10,2013-01-30 03:55:00,
2013-01-29 20:10:00,46.1,41.0,30.27,NNW,339,0.0,-999.0,81,-99.99,,,0.00,weatherlink.com 1.10,2013-01-30 04:10:00,
2013-01-29 20:25:00,46.1,41.0,30.27,NNW,339,0.0,-999.0,81,-99.99,,,0.00,weatherlink.com 1.10,2013-01-30 04:25:00,
2013-01-29 20:40:00,46.0,41.0,30.27,NNW,339,0.0,-999.0,81,-99.99,,,0.00,weatherlink.com 1.10,2013-01-30 04:40:00,
2013-01-29 20:55:00,45.4,40.0,30.28,NNW,339,1.0,-999.0,81,-99.99,,,0.00,weatherlink.com 1.10,2013-01-30 04:55:00,
2013-01-29 21:10:00,44.3,39.0,30.28,NNW,339,0.0,-999.0,82,-99.99,,,0.00,weatherlink.com 1.10,2013-01-30 05:10:00,
2013-01-29 21:25:00,43.6,39.0,30.28,NNW,339,0.0,-999.0,83,-99.99,,,0.00,weatherlink.com 1.10,2013-01-30 05:25:00,
2013-01-29 21:40:00,43.1,39.0,30.28,NNW,339,0.0,-999.0,84,-99.99,,,0.00,weatherlink.com 1.10,2013-01-30 05:40:00,
2013-01-29 21:55:00,42.6,38.0,30.28,NNW,339,0.0,-999.0,85,-99.99,,,0.00,weatherlink.com 1.10,2013-01-30 05:55:00,
2013-01-29 22:10:00,42.2,38.0,30.27,NNW,339,0.0,-999.0,86,-99.99,,,0.00,weatherlink.com 1.10,2013-01-30 06:10:00,
2013-01-29 22:25:00,41.9,38.0,30.27,NNW,339,0.0,-999.0,87,-99.99,,,0.00,weatherlink.com 1.10,2013-01-30 06:25:00,
2013-01-29 22:40:00,41.8,38.0,30.27,NNW,339,0.0,-999.0,87,-99.99,,,0.00,weatherlink.com 1.10,2013-01-30 06:40:00,
2013-01-29 22:55:00,41.6,38.0,30.27,NNW,339,0.0,-999.0,88,-99.99,,,0.00,weatherlink.com 1.10,2013-01-30 06:55:00,
2013-01-29 23:10:00,41.5,38.0,30.27,NNW,339,0.0,-999.0,88,-99.99,,,0.00,weatherlink.com 1.10,2013-01-30 07:10:00,
2013-01-29 23:25:00,41.2,38.0,30.27,NNW,339,0.0,-999.0,88,-99.99,,,0.00,weatherlink.com 1.10,2013-01-30 07:25:00,
2013-01-29 23:40:00,41.3,38.0,30.28,NNW,339,0.0,-999.0,89,-99.99,,,0.00,weatherlink.com 1.10,2013-01-30 07:40:00,
2013-01-29 23:55:00,42.2,40.0,30.28,NNW,339,1.0,-999.0,90,-99.99,,,0.00,weatherlink.com 1.10,2013-01-30 07:55:00,